sensor_id;sensor_type;location;lat;lon;timestamp;pressure;altitude;pressure_sealevel;temperature;humidity
9439;BME280;5176;42.622;25.386;2022-12-18T00:00:50;97802.19;;;11.24;100.00
9439;BME280;5176;42.622;25.386;2022-12-18T00:03:17;97830.66;;;11.46;100.00
9439;BME280;5176;42.622;25.386;2022-12-18T00:05:48;97840.03;;;11.50;100.00
9439;BME280;5176;42.622;25.386;2022-12-18T00:08:16;97807.69;;;11.19;100.00
9439;BME280;5176;42.622;25.386;2022-12-18T00:10:44;97810.91;;;11.09;100.00
9439;BME280;5176;42.622;25.386;2022-12-18T00:13:12;97842.22;;;11.28;100.00
9439;BME280;5176;42.622;25.386;2022-12-18T00:15:39;97823.09;;;11.10;100.00
9439;BME280;5176;42.622;25.386;2022-12-18T00:18:08;97845.03;;;11.25;100.00
9439;BME280;5176;42.622;25.386;2022-12-18T00:20:36;97844.19;;;11.24;100.00
9439;BME280;5176;42.622;25.386;2022-12-18T00:23:04;97825.56;;;11.13;100.00
9439;BME280;5176;42.622;25.386;2022-12-18T00:25:32;97846.38;;;11.16;100.00
9439;BME280;5176;42.622;25.386;2022-12-18T00:28:00;97854.91;;;11.19;100.00
9439;BME280;5176;42.622;25.386;2022-12-18T00:30:27;97859.72;;;11.27;100.00
9439;BME280;5176;42.622;25.386;2022-12-18T00:32:55;97854.56;;;11.26;100.00
9439;BME280;5176;42.622;25.386;2022-12-18T00:35:24;97835.88;;;11.16;100.00
9439;BME280;5176;42.622;25.386;2022-12-18T00:37:52;97875.88;;;11.35;100.00
9439;BME280;5176;42.622;25.386;2022-12-18T00:40:19;97852.03;;;11.24;100.00
9439;BME280;5176;42.622;25.386;2022-12-18T00:42:46;97841.72;;;11.21;100.00
9439;BME280;5176;42.622;25.386;2022-12-18T00:45:25;97875.31;;;11.30;100.00
9439;BME280;5176;42.622;25.386;2022-12-18T00:47:52;97881.97;;;11.36;100.00
9439;BME280;5176;42.622;25.386;2022-12-18T00:50:23;97891.19;;;11.43;100.00
9439;BME280;5176;42.622;25.386;2022-12-18T00:52:52;97888.41;;;11.46;100.00
9439;BME280;5176;42.622;25.386;2022-12-18T00:55:19;97883.81;;;11.50;100.00
9439;BME280;5176;42.622;25.386;2022-12-18T00:57:46;97865.31;;;11.37;100.00
9439;BME280;5176;42.622;25.386;2022-12-18T01:00:15;97861.97;;;11.49;100.00
9439;BME280;5176;42.622;25.386;2022-12-18T01:02:42;97882.97;;;11.65;100.00
9439;BME280;5176;42.622;25.386;2022-12-18T01:05:10;97850.63;;;11.49;100.00
9439;BME280;5176;42.622;25.386;2022-12-18T01:07:39;97856.38;;;11.55;100.00
9439;BME280;5176;42.622;25.386;2022-12-18T01:10:09;97879.41;;;11.66;100.00
9439;BME280;5176;42.622;25.386;2022-12-18T01:12:36;97859.63;;;11.44;100.00
9439;BME280;5176;42.622;25.386;2022-12-18T01:15:05;97883.91;;;11.64;100.00
9439;BME280;5176;42.622;25.386;2022-12-18T01:17:34;97881.03;;;11.53;100.00
9439;BME280;5176;42.622;25.386;2022-12-18T01:20:01;97876.47;;;11.40;100.00
9439;BME280;5176;42.622;25.386;2022-12-18T01:22:28;97870.72;;;11.34;100.00
9439;BME280;5176;42.622;25.386;2022-12-18T01:24:57;97881.22;;;11.34;100.00
9439;BME280;5176;42.622;25.386;2022-12-18T01:27:24;97888.84;;;11.38;100.00
9439;BME280;5176;42.622;25.386;2022-12-18T01:29:52;97882.13;;;11.49;100.00
9439;BME280;5176;42.622;25.386;2022-12-18T01:32:19;97882.97;;;11.49;100.00
9439;BME280;5176;42.622;25.386;2022-12-18T01:34:47;97848.38;;;11.27;100.00
9439;BME280;5176;42.622;25.386;2022-12-18T01:37:15;97854.72;;;11.23;100.00
9439;BME280;5176;42.622;25.386;2022-12-18T01:39:42;97874.69;;;11.41;100.00
9439;BME280;5176;42.622;25.386;2022-12-18T01:42:12;97839.19;;;11.19;100.00
9439;BME280;5176;42.622;25.386;2022-12-18T01:47:45;97824.72;;;11.12;100.00
9439;BME280;5176;42.622;25.386;2022-12-18T01:50:16;97878.06;;;11.43;100.00
9439;BME280;5176;42.622;25.386;2022-12-18T01:52:47;97871.72;;;11.47;100.00
9439;BME280;5176;42.622;25.386;2022-12-18T01:55:19;97871.72;;;11.47;100.00
9439;BME280;5176;42.622;25.386;2022-12-18T01:57:49;97872.56;;;11.48;100.00
9439;BME280;5176;42.622;25.386;2022-12-18T02:00:22;97873.41;;;11.48;100.00
9439;BME280;5176;42.622;25.386;2022-12-18T02:02:49;97880.44;;;11.48;100.00
9439;BME280;5176;42.622;25.386;2022-12-18T02:05:19;97888.00;;;11.38;100.00
9439;BME280;5176;42.622;25.386;2022-12-18T02:07:57;97881.47;;;11.29;100.00
9439;BME280;5176;42.622;25.386;2022-12-18T02:10:35;97884.03;;;11.31;100.00
9439;BME280;5176;42.622;25.386;2022-12-18T02:13:12;97893.41;;;11.35;100.00
9439;BME280;5176;42.622;25.386;2022-12-18T02:15:46;97858.63;;;11.15;100.00
9439;BME280;5176;42.622;25.386;2022-12-18T02:18:21;97891.06;;;11.30;100.00
9439;BME280;5176;42.622;25.386;2022-12-18T02:20:55;97883.59;;;11.23;100.00
9439;BME280;5176;42.622;25.386;2022-12-18T02:23:42;97875.47;;;11.27;100.00
9439;BME280;5176;42.622;25.386;2022-12-18T02:26:19;97884.78;;;11.33;100.00
9439;BME280;5176;42.622;25.386;2022-12-18T02:28:52;97862.03;;;11.02;100.00
9439;BME280;5176;42.622;25.386;2022-12-18T02:31:26;97876.66;;;11.22;100.00
9439;BME280;5176;42.622;25.386;2022-12-18T02:34:00;97885.81;;;11.30;100.00
9439;BME280;5176;42.622;25.386;2022-12-18T02:36:30;97892.81;;;11.30;100.00
9439;BME280;5176;42.622;25.386;2022-12-18T02:39:00;97892.47;;;11.36;100.00
9439;BME280;5176;42.622;25.386;2022-12-18T02:41:30;97900.09;;;11.40;100.00
9439;BME280;5176;42.622;25.386;2022-12-18T02:44:01;97903.47;;;11.42;100.00
9439;BME280;5176;42.622;25.386;2022-12-18T02:46:32;97876.91;;;11.33;100.00
9439;BME280;5176;42.622;25.386;2022-12-18T02:49:09;97897.22;;;11.45;100.00
9439;BME280;5176;42.622;25.386;2022-12-18T02:51:47;97891.88;;;11.46;100.00
9439;BME280;5176;42.622;25.386;2022-12-18T02:54:24;97879.09;;;11.40;100.00
9439;BME280;5176;42.622;25.386;2022-12-18T02:56:58;97889.06;;;11.50;100.00
9439;BME280;5176;42.622;25.386;2022-12-18T02:59:34;97897.22;;;11.45;100.00
9439;BME280;5176;42.622;25.386;2022-12-18T03:02:11;97887.22;;;11.36;100.00
9439;BME280;5176;42.622;25.386;2022-12-18T03:04:47;97903.97;;;11.49;100.00
9439;BME280;5176;42.622;25.386;2022-12-18T03:07:20;97902.03;;;11.53;100.00
9439;BME280;5176;42.622;25.386;2022-12-18T03:09:53;97884.69;;;11.34;100.00
9439;BME280;5176;42.622;25.386;2022-12-18T03:12:27;97890.97;;;11.32;100.00
9439;BME280;5176;42.622;25.386;2022-12-18T03:14:59;97911.00;;;11.49;100.00
9439;BME280;5176;42.622;25.386;2022-12-18T03:17:31;97918.88;;;11.49;100.00
9439;BME280;5176;42.622;25.386;2022-12-18T03:20:04;97905.19;;;11.43;100.00
9439;BME280;5176;42.622;25.386;2022-12-18T03:22:33;97885.03;;;11.28;100.00
9439;BME280;5176;42.622;25.386;2022-12-18T03:25:04;97892.06;;;10.96;100.00
9439;BME280;5176;42.622;25.386;2022-12-18T03:27:37;97925.00;;;11.02;100.00
9439;BME280;5176;42.622;25.386;2022-12-18T03:30:08;97922.81;;;10.94;100.00
9439;BME280;5176;42.622;25.386;2022-12-18T03:32:41;97936.66;;;10.96;100.00
9439;BME280;5176;42.622;25.386;2022-12-18T03:35:12;97917.22;;;10.84;100.00
9439;BME280;5176;42.622;25.386;2022-12-18T03:37:40;97919.66;;;10.87;100.00
9439;BME280;5176;42.622;25.386;2022-12-18T03:40:08;97931.38;;;10.98;100.00
9439;BME280;5176;42.622;25.386;2022-12-18T03:42:44;97928.47;;;11.02;100.00
9439;BME280;5176;42.622;25.386;2022-12-18T03:45:19;97920.25;;;11.08;100.00
9439;BME280;5176;42.622;25.386;2022-12-18T03:47:55;97953.47;;;11.25;100.00
9439;BME280;5176;42.622;25.386;2022-12-18T03:50:32;97937.63;;;11.11;100.00
9439;BME280;5176;42.622;25.386;2022-12-18T03:53:12;97949.50;;;11.18;100.00
9439;BME280;5176;42.622;25.386;2022-12-18T03:55:42;97960.41;;;11.26;100.00
9439;BME280;5176;42.622;25.386;2022-12-18T03:58:13;97960.41;;;11.26;100.00
9439;BME280;5176;42.622;25.386;2022-12-18T04:00:44;97920.88;;;10.98;100.00
9439;BME280;5176;42.622;25.386;2022-12-18T04:03:14;97948.22;;;11.25;100.00
9439;BME280;5176;42.622;25.386;2022-12-18T04:05:42;97954.88;;;11.15;100.00
9439;BME280;5176;42.622;25.386;2022-12-18T04:08:10;97956.56;;;11.16;100.00
9439;BME280;5176;42.622;25.386;2022-12-18T04:10:37;97953.44;;;11.09;100.00
9439;BME280;5176;42.622;25.386;2022-12-18T04:13:04;97974.38;;;11.27;100.00
9439;BME280;5176;42.622;25.386;2022-12-18T04:15:34;97937.44;;;10.98;100.00
9439;BME280;5176;42.622;25.386;2022-12-18T04:18:02;97947.19;;;11.12;100.00
9439;BME280;5176;42.622;25.386;2022-12-18T04:20:30;97951.00;;;11.06;100.00
9439;BME280;5176;42.622;25.386;2022-12-18T04:22:57;97958.69;;;11.09;100.00
9439;BME280;5176;42.622;25.386;2022-12-18T04:25:26;97963.94;;;11.09;100.00
9439;BME280;5176;42.622;25.386;2022-12-18T04:27:53;97979.63;;;11.11;100.00
9439;BME280;5176;42.622;25.386;2022-12-18T04:30:20;97957.00;;;10.93;100.00
9439;BME280;5176;42.622;25.386;2022-12-18T04:32:49;97955.63;;;10.85;100.00
9439;BME280;5176;42.622;25.386;2022-12-18T04:35:16;97969.78;;;10.99;100.00
9439;BME280;5176;42.622;25.386;2022-12-18T04:37:43;97972.81;;;10.91;100.00
9439;BME280;5176;42.622;25.386;2022-12-18T04:40:12;97983.00;;;10.97;100.00
9439;BME280;5176;42.622;25.386;2022-12-18T04:42:40;98007.47;;;11.13;100.00
9439;BME280;5176;42.622;25.386;2022-12-18T04:45:08;97977.22;;;10.90;100.00
9439;BME280;5176;42.622;25.386;2022-12-18T04:47:35;97973.13;;;10.85;100.00
9439;BME280;5176;42.622;25.386;2022-12-18T04:50:05;97991.53;;;11.01;100.00
9439;BME280;5176;42.622;25.386;2022-12-18T04:52:33;98014.72;;;11.08;100.00
9439;BME280;5176;42.622;25.386;2022-12-18T04:55:00;98016.81;;;11.02;100.00
9439;BME280;5176;42.622;25.386;2022-12-18T04:57:27;98037.38;;;11.27;100.00
9439;BME280;5176;42.622;25.386;2022-12-18T04:59:55;98022.88;;;11.04;100.00
9439;BME280;5176;42.622;25.386;2022-12-18T05:02:22;98018.19;;;11.09;100.00
9439;BME280;5176;42.622;25.386;2022-12-18T05:04:49;98023.84;;;11.01;100.00
9439;BME280;5176;42.622;25.386;2022-12-18T05:07:19;98021.72;;;10.92;100.00
9439;BME280;5176;42.622;25.386;2022-12-18T05:09:46;98059.91;;;10.98;100.00
9439;BME280;5176;42.622;25.386;2022-12-18T05:12:14;98041.44;;;10.83;100.00
9439;BME280;5176;42.622;25.386;2022-12-18T05:14:41;98056.22;;;10.84;100.00
9439;BME280;5176;42.622;25.386;2022-12-18T05:17:08;98039.28;;;10.57;100.00
9439;BME280;5176;42.622;25.386;2022-12-18T05:19:36;98067.66;;;10.66;100.00
9439;BME280;5176;42.622;25.386;2022-12-18T05:22:03;98059.16;;;10.61;100.00
9439;BME280;5176;42.622;25.386;2022-12-18T05:24:32;98068.41;;;10.68;100.00
9439;BME280;5176;42.622;25.386;2022-12-18T05:26:59;98077.84;;;10.72;100.00
9439;BME280;5176;42.622;25.386;2022-12-18T05:29:27;98074.06;;;10.78;100.00
9439;BME280;5176;42.622;25.386;2022-12-18T05:31:54;98048.06;;;10.56;100.00
9439;BME280;5176;42.622;25.386;2022-12-18T05:34:21;98036.94;;;10.68;100.00
9439;BME280;5176;42.622;25.386;2022-12-18T05:36:49;98083.34;;;11.01;100.00
9439;BME280;5176;42.622;25.386;2022-12-18T05:39:16;98082.69;;;10.97;100.00
9439;BME280;5176;42.622;25.386;2022-12-18T05:41:45;98091.91;;;11.04;100.00
9439;BME280;5176;42.622;25.386;2022-12-18T05:44:12;98094.16;;;11.12;100.00
9439;BME280;5176;42.622;25.386;2022-12-18T05:46:40;98073.03;;;10.98;100.00
9439;BME280;5176;42.622;25.386;2022-12-18T05:49:07;98090.34;;;11.17;100.00
9439;BME280;5176;42.622;25.386;2022-12-18T05:51:34;98091.19;;;11.18;100.00
9439;BME280;5176;42.622;25.386;2022-12-18T05:54:02;98074.31;;;11.06;100.00
9439;BME280;5176;42.622;25.386;2022-12-18T05:56:29;98102.03;;;11.28;100.00
9439;BME280;5176;42.622;25.386;2022-12-18T05:58:58;98098.66;;;11.26;100.00
9439;BME280;5176;42.622;25.386;2022-12-18T06:01:26;98101.72;;;11.34;100.00
9439;BME280;5176;42.622;25.386;2022-12-18T06:03:54;98109.50;;;11.35;100.00
9439;BME280;5176;42.622;25.386;2022-12-18T06:06:23;98122.63;;;11.35;100.00
9439;BME280;5176;42.622;25.386;2022-12-18T06:08:52;98100.69;;;11.21;100.00
9439;BME280;5176;42.622;25.386;2022-12-18T06:11:20;98107.69;;;11.20;100.00
9439;BME280;5176;42.622;25.386;2022-12-18T06:13:50;98097.59;;;11.12;100.00
9439;BME280;5176;42.622;25.386;2022-12-18T06:16:19;98108.78;;;11.16;100.00
9439;BME280;5176;42.622;25.386;2022-12-18T06:18:46;98116.75;;;11.14;100.00
9439;BME280;5176;42.622;25.386;2022-12-18T06:21:13;98103.84;;;11.10;100.00
9439;BME280;5176;42.622;25.386;2022-12-18T06:23:41;98147.91;;;11.38;100.00
9439;BME280;5176;42.622;25.386;2022-12-18T06:26:10;98114.19;;;11.13;100.00
9439;BME280;5176;42.622;25.386;2022-12-18T06:28:38;98147.19;;;11.34;100.00
9439;BME280;5176;42.622;25.386;2022-12-18T06:31:06;98160.94;;;11.39;100.00
9439;BME280;5176;42.622;25.386;2022-12-18T06:33:35;98150.63;;;11.19;100.00
9439;BME280;5176;42.622;25.386;2022-12-18T06:36:05;98172.47;;;11.37;100.00
9439;BME280;5176;42.622;25.386;2022-12-18T06:38:33;98147.47;;;11.12;100.00
9439;BME280;5176;42.622;25.386;2022-12-18T06:41:05;98177.19;;;11.30;100.00
9439;BME280;5176;42.622;25.386;2022-12-18T06:43:33;98135.91;;;10.99;100.00
9439;BME280;5176;42.622;25.386;2022-12-18T06:46:00;98166.47;;;11.17;100.00
9439;BME280;5176;42.622;25.386;2022-12-18T06:48:28;98169.44;;;11.10;100.00
9439;BME280;5176;42.622;25.386;2022-12-18T06:50:56;98164.81;;;11.15;100.00
9439;BME280;5176;42.622;25.386;2022-12-18T06:53:24;98175.09;;;11.02;100.00
9439;BME280;5176;42.622;25.386;2022-12-18T06:55:51;98213.38;;;11.24;100.00
9439;BME280;5176;42.622;25.386;2022-12-18T06:58:18;98183.44;;;11.10;100.00
9439;BME280;5176;42.622;25.386;2022-12-18T07:00:46;98202.81;;;11.25;100.00
9439;BME280;5176;42.622;25.386;2022-12-18T07:03:13;98220.56;;;11.37;100.00
9439;BME280;5176;42.622;25.386;2022-12-18T07:05:40;98223.19;;;11.37;100.00
9439;BME280;5176;42.622;25.386;2022-12-18T07:08:09;98221.84;;;11.29;100.00
9439;BME280;5176;42.622;25.386;2022-12-18T07:10:41;98220.25;;;11.26;100.00
9439;BME280;5176;42.622;25.386;2022-12-18T07:13:09;98190.69;;;11.05;100.00
9439;BME280;5176;42.622;25.386;2022-12-18T07:15:36;98235.50;;;11.35;100.00
9439;BME280;5176;42.622;25.386;2022-12-18T07:18:04;98244.50;;;11.31;100.00
9439;BME280;5176;42.622;25.386;2022-12-18T07:20:31;98240.09;;;11.32;100.00
9439;BME280;5176;42.622;25.386;2022-12-18T07:23:01;98262.47;;;11.39;100.00
9439;BME280;5176;42.622;25.386;2022-12-18T07:25:30;98242.16;;;11.42;100.00
9439;BME280;5176;42.622;25.386;2022-12-18T07:27:58;98248.47;;;11.56;100.00
9439;BME280;5176;42.622;25.386;2022-12-18T07:30:26;98243.53;;;11.50;100.00
9439;BME280;5176;42.622;25.386;2022-12-18T07:32:53;98250.41;;;11.52;100.00
9439;BME280;5176;42.622;25.386;2022-12-18T07:35:20;98257.19;;;11.56;100.00
9439;BME280;5176;42.622;25.386;2022-12-18T07:37:48;98245.78;;;11.57;100.00
9439;BME280;5176;42.622;25.386;2022-12-18T07:40:15;98235.44;;;11.54;100.00
9439;BME280;5176;42.622;25.386;2022-12-18T07:42:44;98240.66;;;11.54;100.00
9439;BME280;5176;42.622;25.386;2022-12-18T07:45:11;98256.34;;;11.56;100.00
9439;BME280;5176;42.622;25.386;2022-12-18T07:47:39;98246.63;;;11.58;100.00
9439;BME280;5176;42.622;25.386;2022-12-18T07:50:08;98251.56;;;11.64;100.00
9439;BME280;5176;42.622;25.386;2022-12-18T07:52:35;98225.16;;;11.50;100.00
9439;BME280;5176;42.622;25.386;2022-12-18T07:55:03;98223.31;;;11.52;100.00
9439;BME280;5176;42.622;25.386;2022-12-18T07:57:31;98258.72;;;11.78;100.00
9439;BME280;5176;42.622;25.386;2022-12-18T07:59:59;98233.28;;;11.45;100.00
9439;BME280;5176;42.622;25.386;2022-12-18T08:02:30;98262.66;;;11.69;100.00
9439;BME280;5176;42.622;25.386;2022-12-18T08:04:57;98263.25;;;11.58;100.00
9439;BME280;5176;42.622;25.386;2022-12-18T08:07:25;98233.81;;;11.34;100.00
9439;BME280;5176;42.622;25.386;2022-12-18T08:09:52;98267.69;;;11.56;100.00
9439;BME280;5176;42.622;25.386;2022-12-18T08:12:20;98277.00;;;11.46;100.00
9439;BME280;5176;42.622;25.386;2022-12-18T08:14:47;98277.53;;;11.35;100.00
9439;BME280;5176;42.622;25.386;2022-12-18T08:17:16;98290.09;;;11.29;99.64
9439;BME280;5176;42.622;25.386;2022-12-18T08:19:43;98274.97;;;11.16;98.46
9439;BME280;5176;42.622;25.386;2022-12-18T08:22:11;98287.88;;;11.21;97.30
9439;BME280;5176;42.622;25.386;2022-12-18T08:24:38;98272.13;;;11.04;98.25
9439;BME280;5176;42.622;25.386;2022-12-18T08:27:05;98279.66;;;11.10;98.34
9439;BME280;5176;42.622;25.386;2022-12-18T08:29:33;98266.25;;;10.99;99.34
9439;BME280;5176;42.622;25.386;2022-12-18T08:32:00;98288.25;;;11.13;100.00
9439;BME280;5176;42.622;25.386;2022-12-18T08:34:29;98289.00;;;11.15;99.78
9439;BME280;5176;42.622;25.386;2022-12-18T08:36:56;98287.88;;;11.21;99.92
9439;BME280;5176;42.622;25.386;2022-12-18T08:39:24;98297.44;;;11.22;99.35
9439;BME280;5176;42.622;25.386;2022-12-18T08:41:51;98293.81;;;11.25;98.96
9439;BME280;5176;42.622;25.386;2022-12-18T08:44:32;98292.19;;;11.39;99.18
9439;BME280;5176;42.622;25.386;2022-12-18T08:47:06;98297.00;;;11.31;98.79
9439;BME280;5176;42.622;25.386;2022-12-18T08:49:36;98273.22;;;11.17;100.00
9439;BME280;5176;42.622;25.386;2022-12-18T08:52:03;98292.50;;;11.33;100.00
9439;BME280;5176;42.622;25.386;2022-12-18T08:54:31;98289.66;;;11.38;100.00
9439;BME280;5176;42.622;25.386;2022-12-18T08:56:58;98300.94;;;11.40;100.00
9439;BME280;5176;42.622;25.386;2022-12-18T08:59:29;98294.06;;;11.37;100.00
9439;BME280;5176;42.622;25.386;2022-12-18T09:01:56;98316.81;;;11.54;100.00
9439;BME280;5176;42.622;25.386;2022-12-18T09:04:24;98298.91;;;11.62;100.00
9439;BME280;5176;42.622;25.386;2022-12-18T09:06:55;98305.31;;;11.57;98.24
9439;BME280;5176;42.622;25.386;2022-12-18T09:09:23;98263.31;;;11.22;96.38
9439;BME280;5176;42.622;25.386;2022-12-18T09:11:50;98315.97;;;11.54;90.38
9439;BME280;5176;42.622;25.386;2022-12-18T09:14:17;98318.59;;;11.54;89.70
9439;BME280;5176;42.622;25.386;2022-12-18T09:16:46;98278.81;;;11.09;87.36
9439;BME280;5176;42.622;25.386;2022-12-18T09:19:13;98323.38;;;11.28;87.17
9439;BME280;5176;42.622;25.386;2022-12-18T09:21:41;98326.81;;;11.30;88.33
9439;BME280;5176;42.622;25.386;2022-12-18T09:24:12;98330.22;;;11.13;86.68
9439;BME280;5176;42.622;25.386;2022-12-18T09:26:40;98322.81;;;11.04;86.92
9439;BME280;5176;42.622;25.386;2022-12-18T09:29:07;98334.72;;;11.11;87.20
9439;BME280;5176;42.622;25.386;2022-12-18T09:31:35;98336.28;;;10.97;85.66
9439;BME280;5176;42.622;25.386;2022-12-18T09:34:03;98317.91;;;10.79;87.65
9439;BME280;5176;42.622;25.386;2022-12-18T09:36:30;98327.16;;;10.86;88.71
9439;BME280;5176;42.622;25.386;2022-12-18T09:38:57;98335.03;;;10.86;88.66
9439;BME280;5176;42.622;25.386;2022-12-18T09:41:40;98329.59;;;10.91;88.35
9439;BME280;5176;42.622;25.386;2022-12-18T09:44:23;98321.19;;;10.83;84.68
9439;BME280;5176;42.622;25.386;2022-12-18T09:47:05;98294.09;;;10.65;85.99
9439;BME280;5176;42.622;25.386;2022-12-18T09:49:37;98330.63;;;10.87;86.42
9439;BME280;5176;42.622;25.386;2022-12-18T09:52:12;98334.28;;;10.84;86.83
9439;BME280;5176;42.622;25.386;2022-12-18T09:54:47;98328.78;;;10.89;85.63
9439;BME280;5176;42.622;25.386;2022-12-18T09:57:20;98315.34;;;10.78;85.58
9439;BME280;5176;42.622;25.386;2022-12-18T09:59:51;98331.00;;;10.79;85.66
9439;BME280;5176;42.622;25.386;2022-12-18T10:02:21;98333.34;;;10.85;85.60
9439;BME280;5176;42.622;25.386;2022-12-18T10:05:02;98300.03;;;10.69;84.83
9439;BME280;5176;42.622;25.386;2022-12-18T10:07:39;98300.53;;;10.77;85.74
9439;BME280;5176;42.622;25.386;2022-12-18T10:10:18;98319.38;;;10.85;84.33
9439;BME280;5176;42.622;25.386;2022-12-18T10:12:55;98334.41;;;10.81;83.38
9439;BME280;5176;42.622;25.386;2022-12-18T10:15:29;98341.69;;;10.94;82.33
9439;BME280;5176;42.622;25.386;2022-12-18T10:18:06;98320.44;;;10.81;83.09
9439;BME280;5176;42.622;25.386;2022-12-18T10:20:44;98326.41;;;10.84;83.67
9439;BME280;5176;42.622;25.386;2022-12-18T10:23:19;98345.97;;;10.77;82.88
9439;BME280;5176;42.622;25.386;2022-12-18T10:25:54;98332.44;;;10.68;82.26
9439;BME280;5176;42.622;25.386;2022-12-18T10:28:25;98356.50;;;10.76;83.51
9439;BME280;5176;42.622;25.386;2022-12-18T10:30:53;98350.13;;;10.81;85.71
9439;BME280;5176;42.622;25.386;2022-12-18T10:33:22;98344.41;;;10.73;82.28
9439;BME280;5176;42.622;25.386;2022-12-18T10:35:51;98351.50;;;10.90;81.78
9439;BME280;5176;42.622;25.386;2022-12-18T10:38:24;98339.91;;;10.94;82.19
9439;BME280;5176;42.622;25.386;2022-12-18T10:40:54;98346.34;;;11.06;82.47
9439;BME280;5176;42.622;25.386;2022-12-18T10:43:25;98345.59;;;11.04;81.80
9439;BME280;5176;42.622;25.386;2022-12-18T10:46:02;98349.81;;;11.06;82.47
9439;BME280;5176;42.622;25.386;2022-12-18T10:48:34;98346.47;;;11.03;81.88
9439;BME280;5176;42.622;25.386;2022-12-18T10:51:03;98346.78;;;10.97;81.97
9439;BME280;5176;42.622;25.386;2022-12-18T10:53:31;98347.00;;;10.92;82.35
9439;BME280;5176;42.622;25.386;2022-12-18T10:56:04;98351.13;;;10.98;82.04
9439;BME280;5176;42.622;25.386;2022-12-18T10:58:35;98348.06;;;11.07;82.36
9439;BME280;5176;42.622;25.386;2022-12-18T11:01:06;98345.44;;;11.07;81.23
9439;BME280;5176;42.622;25.386;2022-12-18T11:03:35;98362.38;;;11.18;81.32
9439;BME280;5176;42.622;25.386;2022-12-18T11:06:06;98324.34;;;10.91;79.77
9439;BME280;5176;42.622;25.386;2022-12-18T11:08:34;98342.69;;;10.91;81.33
9439;BME280;5176;42.622;25.386;2022-12-18T11:11:02;98330.91;;;11.00;81.97
9439;BME280;5176;42.622;25.386;2022-12-18T11:13:30;98351.94;;;11.17;82.10
9439;BME280;5176;42.622;25.386;2022-12-18T11:16:00;98360.66;;;11.17;80.85
9439;BME280;5176;42.622;25.386;2022-12-18T11:18:29;98337.50;;;10.89;80.29
9439;BME280;5176;42.622;25.386;2022-12-18T11:21:00;98357.78;;;11.05;82.20
9439;BME280;5176;42.622;25.386;2022-12-18T11:23:33;98377.72;;;10.90;79.80
9439;BME280;5176;42.622;25.386;2022-12-18T11:26:03;98335.69;;;10.73;80.82
9439;BME280;5176;42.622;25.386;2022-12-18T11:28:38;98332.28;;;10.71;80.73
9439;BME280;5176;42.622;25.386;2022-12-18T11:31:22;98377.97;;;11.03;82.00
9439;BME280;5176;42.622;25.386;2022-12-18T11:33:56;98377.38;;;10.98;82.41
9439;BME280;5176;42.622;25.386;2022-12-18T11:36:25;98382.63;;;10.98;82.72
9439;BME280;5176;42.622;25.386;2022-12-18T11:38:56;98381.88;;;10.94;82.76
9439;BME280;5176;42.622;25.386;2022-12-18T11:41:29;98388.16;;;10.91;84.65
9439;BME280;5176;42.622;25.386;2022-12-18T11:44:15;98343.34;;;10.58;83.11
9439;BME280;5176;42.622;25.386;2022-12-18T11:46:49;98384.81;;;10.88;84.00
9439;BME280;5176;42.622;25.386;2022-12-18T11:49:21;98374.19;;;10.91;85.80
9439;BME280;5176;42.622;25.386;2022-12-18T11:51:52;98350.84;;;10.66;86.50
9439;BME280;5176;42.622;25.386;2022-12-18T11:54:22;98370.16;;;10.84;86.95
9439;BME280;5176;42.622;25.386;2022-12-18T11:56:53;98354.97;;;10.72;87.77
9439;BME280;5176;42.622;25.386;2022-12-18T11:59:29;98366.38;;;10.71;87.95
9439;BME280;5176;42.622;25.386;2022-12-18T12:02:14;98357.13;;;10.63;90.10
9439;BME280;5176;42.622;25.386;2022-12-18T12:04:50;98370.78;;;10.70;90.07
9439;BME280;5176;42.622;25.386;2022-12-18T12:07:33;98375.03;;;10.73;90.71
9439;BME280;5176;42.622;25.386;2022-12-18T12:10:16;98360.63;;;10.62;90.48
9439;BME280;5176;42.622;25.386;2022-12-18T12:12:59;98365.88;;;10.62;91.76
9439;BME280;5176;42.622;25.386;2022-12-18T12:15:40;98380.69;;;10.45;92.12
9439;BME280;5176;42.622;25.386;2022-12-18T12:18:20;98353.09;;;10.16;92.29
9439;BME280;5176;42.622;25.386;2022-12-18T12:20:55;98388.09;;;10.35;92.05
9439;BME280;5176;42.622;25.386;2022-12-18T12:23:30;98379.91;;;10.22;91.75
9439;BME280;5176;42.622;25.386;2022-12-18T12:26:04;98357.78;;;10.09;93.21
9439;BME280;5176;42.622;25.386;2022-12-18T12:28:55;98371.69;;;10.11;93.90
9439;BME280;5176;42.622;25.386;2022-12-18T12:31:35;98395.84;;;10.18;94.43
9439;BME280;5176;42.622;25.386;2022-12-18T12:34:15;98376.00;;;10.12;94.67
9439;BME280;5176;42.622;25.386;2022-12-18T12:36:56;98372.53;;;10.12;95.44
9439;BME280;5176;42.622;25.386;2022-12-18T12:39:31;98368.84;;;9.95;94.64
9439;BME280;5176;42.622;25.386;2022-12-18T12:42:00;98383.94;;;10.10;94.59
9439;BME280;5176;42.622;25.386;2022-12-18T12:44:49;98376.66;;;10.17;94.32
9439;BME280;5176;42.622;25.386;2022-12-18T12:47:21;98406.69;;;10.08;94.45
9439;BME280;5176;42.622;25.386;2022-12-18T12:49:51;98417.41;;;10.24;95.00
9439;BME280;5176;42.622;25.386;2022-12-18T12:52:26;98413.09;;;10.23;95.88
9439;BME280;5176;42.622;25.386;2022-12-18T12:54:55;98413.13;;;10.22;96.73
9439;BME280;5176;42.622;25.386;2022-12-18T12:57:30;98411.25;;;10.05;96.61
9439;BME280;5176;42.622;25.386;2022-12-18T13:00:04;98425.00;;;10.10;97.50
9439;BME280;5176;42.622;25.386;2022-12-18T13:02:36;98426.69;;;10.11;97.95
9439;BME280;5176;42.622;25.386;2022-12-18T13:05:16;98431.09;;;10.10;99.21
9439;BME280;5176;42.622;25.386;2022-12-18T13:07:50;98429.06;;;10.17;99.62
9439;BME280;5176;42.622;25.386;2022-12-18T13:10:30;98429.69;;;10.22;100.00
9439;BME280;5176;42.622;25.386;2022-12-18T13:13:01;98418.34;;;10.23;100.00
9439;BME280;5176;42.622;25.386;2022-12-18T13:15:34;98431.16;;;10.29;100.00
9439;BME280;5176;42.622;25.386;2022-12-18T13:18:19;98433.66;;;10.32;100.00
9439;BME280;5176;42.622;25.386;2022-12-18T13:20:50;98434.66;;;10.30;100.00
9439;BME280;5176;42.622;25.386;2022-12-18T13:23:29;98431.03;;;10.32;100.00
9439;BME280;5176;42.622;25.386;2022-12-18T13:25:59;98439.75;;;10.33;100.00